createdAt,value
2023-05-19T00:00:37.139Z,60.10
2023-05-19T00:03:00.556Z,61.91
2023-05-19T00:05:23.134Z,60.33
2023-05-19T00:07:46.085Z,61.68
2023-05-19T00:10:08.237Z,62.03
2023-05-19T00:12:30.238Z,60.71
2023-05-19T00:14:51.971Z,60.67
2023-05-19T00:17:14.391Z,60.13
2023-05-19T00:19:35.828Z,60.71
2023-05-19T00:22:00.215Z,60.26
2023-05-19T00:24:21.669Z,59.92
2023-05-19T00:26:43.120Z,59.73
2023-05-19T00:29:04.660Z,59.85
2023-05-19T00:31:26.255Z,59.54
2023-05-19T00:33:47.717Z,59.46
2023-05-19T00:36:09.300Z,59.18
2023-05-19T00:38:34.791Z,59.37
2023-05-19T00:40:56.303Z,59.45
2023-05-19T00:43:17.783Z,59.14
2023-05-19T00:45:39.336Z,59.22
2023-05-19T00:48:00.866Z,59.10
2023-05-19T00:50:24.169Z,59.16
2023-05-19T00:52:45.734Z,59.27
2023-05-19T00:55:09.035Z,59.31
2023-05-19T00:57:30.559Z,59.51
2023-05-19T00:59:52.060Z,59.33
2023-05-19T01:02:13.613Z,59.14
2023-05-19T01:04:37.764Z,59.56
2023-05-19T01:06:59.208Z,60.09
2023-05-19T01:09:23.941Z,60.11
2023-05-19T01:11:45.433Z,59.79
2023-05-19T01:14:07.034Z,59.62
2023-05-19T01:16:37.473Z,59.81
2023-05-19T01:19:29.091Z,59.56
2023-05-19T01:22:14.530Z,59.41
2023-05-19T01:24:57.088Z,60.74
2023-05-19T01:27:42.906Z,60.71
2023-05-19T01:30:25.712Z,61.17
2023-05-19T01:32:48.716Z,60.83
2023-05-19T01:35:12.817Z,61.30
2023-05-19T01:37:34.655Z,60.99
2023-05-19T01:39:57.105Z,60.89
2023-05-19T01:42:20.399Z,60.99
2023-05-19T01:44:42.387Z,63.04
2023-05-19T01:47:04.641Z,63.25
2023-05-19T01:49:26.194Z,62.53
2023-05-19T01:51:49.458Z,61.98
2023-05-19T01:54:10.959Z,61.72
2023-05-19T01:56:50.038Z,61.39
2023-05-19T01:59:42.480Z,61.34
2023-05-19T02:02:30.113Z,61.06
2023-05-19T02:04:57.414Z,61.36
2023-05-19T02:07:41.491Z,61.10
2023-05-19T02:10:10.785Z,61.18
2023-05-19T02:12:37.891Z,61.20
2023-05-19T02:15:07.221Z,61.31
2023-05-19T02:17:33.250Z,61.50
2023-05-19T02:19:54.902Z,61.31
2023-05-19T02:22:16.430Z,61.83
2023-05-19T02:24:37.887Z,62.80
2023-05-19T02:26:59.620Z,63.76
2023-05-19T02:29:21.429Z,62.70
2023-05-19T02:31:43.033Z,62.84
2023-05-19T02:34:04.558Z,63.38
2023-05-19T02:36:26.595Z,62.81
2023-05-19T02:38:48.082Z,63.59
2023-05-19T02:41:09.545Z,64.32
2023-05-19T02:43:31.012Z,64.99
2023-05-19T02:45:52.597Z,64.51
2023-05-19T02:48:14.363Z,64.05
2023-05-19T02:50:36.353Z,63.77
2023-05-19T02:52:57.875Z,63.80
2023-05-19T02:55:19.646Z,63.71
2023-05-19T02:57:42.339Z,64.52
2023-05-19T03:00:06.903Z,65.24
2023-05-19T03:02:28.417Z,67.83
2023-05-19T03:04:50.066Z,66.28
2023-05-19T03:07:13.408Z,65.90
2023-05-19T03:09:34.916Z,67.34
2023-05-19T03:11:56.381Z,67.43
2023-05-19T03:14:18.752Z,68.03
2023-05-19T03:16:43.878Z,71.12
2023-05-19T03:19:05.767Z,69.55
2023-05-19T03:21:27.541Z,69.19
2023-05-19T03:23:49.015Z,68.17
2023-05-19T03:26:10.769Z,67.92
2023-05-19T03:28:32.279Z,69.58
2023-05-19T03:30:53.869Z,71.05
2023-05-19T03:33:15.425Z,71.26
2023-05-19T03:35:37.083Z,72.20
2023-05-19T03:37:58.543Z,72.28
2023-05-19T03:40:20.195Z,73.18
2023-05-19T03:42:41.641Z,71.40
2023-05-19T03:45:03.567Z,70.25
2023-05-19T03:47:25.031Z,69.70
2023-05-19T03:49:46.494Z,68.80
2023-05-19T03:52:07.962Z,68.93
2023-05-19T03:54:29.394Z,69.26
2023-05-19T03:56:50.937Z,70.54
2023-05-19T03:59:12.908Z,71.81
2023-05-19T04:01:34.584Z,71.54
2023-05-19T04:03:56.205Z,73.31
2023-05-19T04:06:19.109Z,74.76
2023-05-19T04:08:40.744Z,73.50
2023-05-19T04:11:02.250Z,71.33
2023-05-19T04:13:23.720Z,70.65
2023-05-19T04:15:45.647Z,70.11
2023-05-19T04:18:07.236Z,69.63
2023-05-19T04:20:28.792Z,73.48
2023-05-19T04:22:50.288Z,72.37
2023-05-19T04:25:11.934Z,73.00
2023-05-19T04:27:36.629Z,72.08
2023-05-19T04:29:58.227Z,70.66
2023-05-19T04:32:19.731Z,70.01
2023-05-19T04:34:45.140Z,69.14
2023-05-19T04:37:07.773Z,69.05
2023-05-19T04:39:29.224Z,71.91
2023-05-19T04:41:50.705Z,70.67
2023-05-19T04:44:13.635Z,69.67
2023-05-19T04:46:35.270Z,68.93
2023-05-19T04:48:57.302Z,68.80
2023-05-19T04:51:19.843Z,68.44
2023-05-19T04:53:42.324Z,69.99
2023-05-19T04:56:04.101Z,69.63
2023-05-19T04:58:25.982Z,70.47
2023-05-19T05:00:47.504Z,70.27
2023-05-19T05:03:09.040Z,69.34
2023-05-19T05:05:31.523Z,68.71
2023-05-19T05:07:54.182Z,69.48
2023-05-19T05:10:15.772Z,68.12
2023-05-19T05:12:37.440Z,68.23
2023-05-19T05:14:59.083Z,67.78
2023-05-19T05:17:21.556Z,69.23
2023-05-19T05:19:43.291Z,68.36
2023-05-19T05:22:06.251Z,67.41
2023-05-19T05:24:28.040Z,67.07
2023-05-19T05:26:49.849Z,66.88
2023-05-19T05:29:11.329Z,66.47
2023-05-19T05:31:32.765Z,66.70
2023-05-19T05:33:54.353Z,66.24
2023-05-19T05:36:15.933Z,66.18
2023-05-19T05:38:37.425Z,65.70
2023-05-19T05:40:58.885Z,65.27
2023-05-19T05:43:20.415Z,65.83
2023-05-19T05:45:41.902Z,66.07
2023-05-19T05:48:04.037Z,65.19
2023-05-19T05:50:26.076Z,64.14
2023-05-19T05:52:48.458Z,64.40
2023-05-19T05:55:10.802Z,64.58
2023-05-19T05:57:35.351Z,64.03
2023-05-19T05:59:57.324Z,63.59
2023-05-19T06:02:19.162Z,63.86
2023-05-19T06:04:40.902Z,62.83
2023-05-19T06:07:02.390Z,63.00
2023-05-19T06:09:23.869Z,63.37
2023-05-19T06:11:45.548Z,63.37
2023-05-19T06:14:07.033Z,62.14
2023-05-19T06:16:28.549Z,62.27
2023-05-19T06:18:50.093Z,62.03
2023-05-19T06:21:13.348Z,61.21
2023-05-19T06:23:35.092Z,61.33
2023-05-19T06:25:56.762Z,60.12
2023-05-19T06:28:18.230Z,59.78
2023-05-19T06:30:39.689Z,59.75
2023-05-19T06:33:01.566Z,59.40
2023-05-19T06:35:23.068Z,59.87
2023-05-19T06:37:44.517Z,59.23
2023-05-19T06:40:07.061Z,59.48
2023-05-19T06:42:28.532Z,58.94
2023-05-19T06:44:50.449Z,58.06
2023-05-19T06:47:12.103Z,57.95
2023-05-19T06:49:33.730Z,58.17
2023-05-19T06:51:55.338Z,58.19
2023-05-19T06:54:16.874Z,57.71
2023-05-19T06:56:38.485Z,55.26
2023-05-19T06:58:59.968Z,55.54
2023-05-19T07:01:21.551Z,54.16
2023-05-19T07:03:43.207Z,53.57
2023-05-19T07:06:07.782Z,53.17
2023-05-19T07:08:29.700Z,53.33
2023-05-19T07:10:51.153Z,53.33
2023-05-19T07:13:12.611Z,54.05
2023-05-19T07:15:34.071Z,53.09
2023-05-19T07:17:55.602Z,53.58
2023-05-19T07:20:17.102Z,53.33
2023-05-19T07:22:41.325Z,53.23
2023-05-19T07:25:02.989Z,52.55
2023-05-19T07:27:24.463Z,50.51
2023-05-19T07:29:45.937Z,49.11
2023-05-19T07:32:07.637Z,49.76
2023-05-19T07:34:29.105Z,48.27
2023-05-19T07:36:51.702Z,47.53
2023-05-19T07:39:13.985Z,48.34
2023-05-19T07:41:36.460Z,48.34
2023-05-19T07:43:58.035Z,47.55
2023-05-19T07:46:19.642Z,46.30
2023-05-19T07:48:41.204Z,46.98
2023-05-19T07:51:02.867Z,45.81
2023-05-19T07:53:24.421Z,45.35
2023-05-19T07:55:46.489Z,45.28
2023-05-19T07:58:07.949Z,45.38
2023-05-19T08:00:29.439Z,45.89
2023-05-19T08:02:51.342Z,44.24
2023-05-19T08:05:12.895Z,44.47
2023-05-19T08:07:34.609Z,43.83
2023-05-19T08:09:56.072Z,44.93
2023-05-19T08:12:17.519Z,44.77
2023-05-19T08:14:38.992Z,43.21
2023-05-19T08:17:00.674Z,42.75
2023-05-19T08:19:22.274Z,42.60
2023-05-19T08:21:44.733Z,41.85
2023-05-19T08:24:06.607Z,42.84
2023-05-19T08:26:28.692Z,41.06
2023-05-19T08:28:50.164Z,42.30
2023-05-19T08:31:11.730Z,41.06
2023-05-19T08:33:33.304Z,41.15
2023-05-19T08:35:57.956Z,40.64
2023-05-19T08:38:19.437Z,40.53
2023-05-19T08:40:42.127Z,40.57
2023-05-19T08:43:03.741Z,39.36
2023-05-19T08:45:25.411Z,39.09
2023-05-19T08:47:49.643Z,37.29
2023-05-19T08:50:12.598Z,37.55
2023-05-19T08:52:37.167Z,38.65
2023-05-19T08:55:09.735Z,37.50
2023-05-19T08:57:32.781Z,38.06
2023-05-19T08:59:55.750Z,38.74
2023-05-19T09:02:18.605Z,39.20
2023-05-19T09:04:41.538Z,38.81
2023-05-19T09:07:04.169Z,38.95
2023-05-19T09:09:25.677Z,39.77
2023-05-19T09:11:47.258Z,39.24
2023-05-19T09:14:08.732Z,40.00
2023-05-19T09:16:30.811Z,38.92
2023-05-19T09:18:56.521Z,39.50
2023-05-19T09:21:18.187Z,40.26
2023-05-19T09:23:39.696Z,38.42
2023-05-19T09:26:07.579Z,39.43
2023-05-19T09:28:32.195Z,39.55
2023-05-19T09:31:03.006Z,39.48
2023-05-19T09:33:24.471Z,40.39
2023-05-19T09:35:48.781Z,39.46
2023-05-19T09:38:17.472Z,39.91
2023-05-19T09:40:39.201Z,39.56
2023-05-19T09:43:05.509Z,39.41
2023-05-19T09:45:28.797Z,38.70
2023-05-19T09:47:51.260Z,39.16
2023-05-19T09:50:14.119Z,39.91
2023-05-19T09:52:39.587Z,39.75
2023-05-19T09:55:03.076Z,39.29
2023-05-19T09:57:28.440Z,38.83
2023-05-19T09:59:50.031Z,38.64
2023-05-19T10:02:16.757Z,38.47
2023-05-19T10:04:38.567Z,38.14
2023-05-19T10:07:05.760Z,38.13
2023-05-19T10:09:29.140Z,38.43
2023-05-19T10:11:55.359Z,38.66
2023-05-19T10:14:18.169Z,38.09
2023-05-19T10:16:40.357Z,37.20
2023-05-19T10:19:02.605Z,37.75
2023-05-19T10:21:24.166Z,37.73
2023-05-19T10:23:45.791Z,37.63
2023-05-19T10:26:08.471Z,37.74
2023-05-19T10:28:36.880Z,36.89
2023-05-19T10:31:01.763Z,36.62
2023-05-19T10:33:47.904Z,35.84
2023-05-19T10:36:28.484Z,36.71
2023-05-19T10:39:08.158Z,36.49
2023-05-19T10:41:57.377Z,35.79
2023-05-19T10:44:53.268Z,37.48
2023-05-19T10:47:14.812Z,36.47
2023-05-19T10:49:36.813Z,35.13
2023-05-19T10:51:58.436Z,36.47
2023-05-19T10:54:40.815Z,37.49
2023-05-19T10:57:02.286Z,36.88
2023-05-19T10:59:32.883Z,36.49
2023-05-19T11:01:54.364Z,37.08
2023-05-19T11:04:16.002Z,37.34
2023-05-19T11:06:38.762Z,37.06
2023-05-19T11:09:31.058Z,36.16
2023-05-19T11:12:03.533Z,35.70
2023-05-19T11:14:28.971Z,35.88
2023-05-19T11:16:52.244Z,36.18
2023-05-19T11:19:26.922Z,34.54
2023-05-19T11:21:54.872Z,34.83
2023-05-19T11:24:40.274Z,34.19
2023-05-19T11:27:33.729Z,33.76
2023-05-19T11:29:57.316Z,33.51
2023-05-19T11:32:21.611Z,34.48
2023-05-19T11:34:44.694Z,32.65
2023-05-19T11:37:06.837Z,32.23
2023-05-19T11:39:29.163Z,31.22
2023-05-19T11:41:51.622Z,32.26
2023-05-19T11:44:13.144Z,31.86
2023-05-19T11:46:34.659Z,30.84
2023-05-19T11:48:56.360Z,32.08
2023-05-19T11:51:20.805Z,30.43
2023-05-19T11:53:43.329Z,30.53
2023-05-19T11:56:05.006Z,30.58
2023-05-19T11:58:27.828Z,30.19
2023-05-19T12:00:49.556Z,29.84
2023-05-19T12:03:11.555Z,29.68
2023-05-19T12:05:39.801Z,29.06
2023-05-19T12:08:02.676Z,27.62
2023-05-19T12:10:28.868Z,28.38
2023-05-19T12:12:52.042Z,28.69
2023-05-19T12:15:14.510Z,28.83
2023-05-19T12:17:36.002Z,28.13
2023-05-19T12:19:57.955Z,28.29
2023-05-19T12:22:19.894Z,27.63
2023-05-19T12:24:43.753Z,28.08
2023-05-19T12:27:13.782Z,27.88
2023-05-19T12:29:35.279Z,28.01
2023-05-19T12:31:56.867Z,26.83
2023-05-19T12:34:18.894Z,26.03
2023-05-19T12:36:41.528Z,24.45
2023-05-19T12:39:05.788Z,25.71
2023-05-19T12:41:29.809Z,25.83
2023-05-19T12:43:51.348Z,26.35
2023-05-19T12:46:13.794Z,26.56
2023-05-19T12:48:35.262Z,27.57
2023-05-19T12:50:56.876Z,27.51
2023-05-19T12:53:18.527Z,28.18
2023-05-19T12:55:44.531Z,27.75
2023-05-19T12:58:07.344Z,28.55
2023-05-19T13:00:31.122Z,28.77
2023-05-19T13:03:02.256Z,28.69
2023-05-19T13:05:24.642Z,28.45
2023-05-19T13:08:05.039Z,27.17
2023-05-19T13:10:27.835Z,27.58
2023-05-19T13:12:49.323Z,27.53
2023-05-19T13:15:11.539Z,25.90
2023-05-19T13:17:34.718Z,25.81
2023-05-19T13:19:56.256Z,25.55
2023-05-19T13:22:17.740Z,26.09
2023-05-19T13:24:39.182Z,26.60
2023-05-19T13:27:00.809Z,26.30
2023-05-19T13:29:22.319Z,26.82
2023-05-19T13:31:43.885Z,27.13
2023-05-19T13:34:05.430Z,26.45
2023-05-19T13:36:27.889Z,27.43
2023-05-19T13:38:49.401Z,25.98
2023-05-19T13:41:11.041Z,26.77
2023-05-19T13:43:32.629Z,26.92
2023-05-19T13:45:54.116Z,27.77
2023-05-19T13:48:15.654Z,27.43
2023-05-19T13:50:37.228Z,26.82
2023-05-19T13:52:58.802Z,27.18
2023-05-19T13:55:20.540Z,26.70
2023-05-19T13:57:43.999Z,27.25
2023-05-19T14:00:07.923Z,26.86
2023-05-19T14:02:30.008Z,26.19
2023-05-19T14:04:52.004Z,26.13
2023-05-19T14:07:13.548Z,25.59
2023-05-19T14:09:35.049Z,25.07
2023-05-19T14:11:56.692Z,26.17
2023-05-19T14:14:18.197Z,25.02
2023-05-19T14:16:42.752Z,24.86
2023-05-19T14:19:04.400Z,24.99
2023-05-19T14:21:26.089Z,25.10
2023-05-19T14:23:47.826Z,25.00
2023-05-19T14:26:09.354Z,24.99
2023-05-19T14:28:30.950Z,25.25
2023-05-19T14:30:52.682Z,26.07
2023-05-19T14:33:14.261Z,27.25
2023-05-19T14:35:35.798Z,26.62
2023-05-19T14:37:57.276Z,26.40
2023-05-19T14:40:18.989Z,25.68
2023-05-19T14:42:40.490Z,26.10
2023-05-19T14:45:01.960Z,25.48
2023-05-19T14:47:24.364Z,25.74
2023-05-19T14:49:47.270Z,25.20
2023-05-19T14:52:08.750Z,25.13
2023-05-19T14:54:30.278Z,24.75
2023-05-19T14:56:51.778Z,24.32
2023-05-19T14:59:13.199Z,23.79
2023-05-19T15:01:34.746Z,23.88
2023-05-19T15:03:56.269Z,24.38
2023-05-19T15:06:17.754Z,24.20
2023-05-19T15:08:40.705Z,23.62
2023-05-19T15:11:02.174Z,23.76
2023-05-19T15:13:23.653Z,22.81
2023-05-19T15:15:45.887Z,23.46
2023-05-19T15:18:07.346Z,23.58
2023-05-19T15:20:29.614Z,23.73
2023-05-19T15:22:51.199Z,23.61
2023-05-19T15:25:12.670Z,23.36
2023-05-19T15:27:36.947Z,23.40
2023-05-19T15:29:58.651Z,22.56
2023-05-19T15:32:20.330Z,22.73
2023-05-19T15:34:41.907Z,23.35
2023-05-19T15:37:03.667Z,23.63
2023-05-19T15:39:25.281Z,24.07
2023-05-19T15:41:46.785Z,24.96
2023-05-19T15:44:08.334Z,25.12
2023-05-19T15:46:30.221Z,25.28
2023-05-19T15:48:51.964Z,25.51
2023-05-19T15:51:13.423Z,24.61
2023-05-19T15:53:34.896Z,24.41
2023-05-19T15:55:57.507Z,23.94
2023-05-19T15:58:18.973Z,23.93
2023-05-19T16:00:40.558Z,22.75
2023-05-19T16:03:02.212Z,23.35
2023-05-19T16:05:23.713Z,22.92
2023-05-19T16:07:45.269Z,22.44
2023-05-19T16:10:07.201Z,21.61
2023-05-19T16:12:29.534Z,21.38
2023-05-19T16:14:51.018Z,21.32
2023-05-19T16:17:13.854Z,21.46
2023-05-19T16:19:35.336Z,21.93
2023-05-19T16:21:56.803Z,22.92
2023-05-19T16:24:18.273Z,23.29
2023-05-19T16:26:39.813Z,23.85
2023-05-19T16:29:01.294Z,24.26
2023-05-19T16:31:22.917Z,24.41
2023-05-19T16:33:44.421Z,24.74
2023-05-19T16:36:06.523Z,24.52
2023-05-19T16:38:28.007Z,24.89
2023-05-19T16:40:49.501Z,26.82
2023-05-19T16:43:10.991Z,27.57
2023-05-19T16:45:32.529Z,27.78
2023-05-19T16:47:54.093Z,27.75
2023-05-19T16:50:15.702Z,28.29
2023-05-19T16:52:37.168Z,28.08
2023-05-19T16:54:58.646Z,27.59
2023-05-19T16:57:20.122Z,27.33
2023-05-19T16:59:42.737Z,26.87
2023-05-19T17:02:04.503Z,27.22
2023-05-19T17:04:27.543Z,27.95
2023-05-19T17:06:51.008Z,28.27
2023-05-19T17:09:12.746Z,29.68
2023-05-19T17:11:34.204Z,30.13
2023-05-19T17:13:55.710Z,29.63
2023-05-19T17:16:17.519Z,29.48
2023-05-19T17:18:39.043Z,29.70
2023-05-19T17:21:03.737Z,30.34
2023-05-19T17:23:25.405Z,31.27
2023-05-19T17:25:47.138Z,32.54
2023-05-19T17:28:08.694Z,33.19
2023-05-19T17:30:30.144Z,33.79
2023-05-19T17:32:51.843Z,34.69
2023-05-19T17:35:13.329Z,35.03
2023-05-19T17:37:34.834Z,35.22
2023-05-19T17:39:56.308Z,35.17
2023-05-19T17:42:17.812Z,36.27
2023-05-19T17:44:39.260Z,36.20
2023-05-19T17:47:05.193Z,36.14
2023-05-19T17:49:27.108Z,36.96
2023-05-19T17:51:56.414Z,37.50
2023-05-19T17:54:18.229Z,37.67
2023-05-19T17:56:44.289Z,37.90
2023-05-19T17:59:14.890Z,38.36
2023-05-19T18:01:37.102Z,38.64
2023-05-19T18:03:58.949Z,38.96
2023-05-19T18:06:20.744Z,39.03
2023-05-19T18:08:47.036Z,39.72
2023-05-19T18:11:13.352Z,39.57
2023-05-19T18:13:35.341Z,39.79
2023-05-19T18:15:59.106Z,40.23
2023-05-19T18:18:20.774Z,40.90
2023-05-19T18:20:44.783Z,41.58
2023-05-19T18:23:06.384Z,41.27
2023-05-19T18:25:27.836Z,41.72
2023-05-19T18:27:49.318Z,42.05
2023-05-19T18:30:11.122Z,42.34
2023-05-19T18:32:33.892Z,42.87
2023-05-19T18:34:55.402Z,43.00
2023-05-19T18:37:17.706Z,43.41
2023-05-19T18:39:39.311Z,43.58
2023-05-19T18:42:01.676Z,43.31
2023-05-19T18:44:23.150Z,44.11
2023-05-19T18:46:44.670Z,44.70
2023-05-19T18:49:06.217Z,44.70
2023-05-19T18:51:27.641Z,44.90
2023-05-19T18:53:50.154Z,44.76
2023-05-19T18:56:12.292Z,44.99
2023-05-19T18:58:33.771Z,45.29
2023-05-19T19:00:55.994Z,45.75
2023-05-19T19:03:17.656Z,46.38
2023-05-19T19:05:39.663Z,46.56
2023-05-19T19:08:01.238Z,48.13
2023-05-19T19:10:22.697Z,47.85
2023-05-19T19:12:44.177Z,47.41
2023-05-19T19:15:06.232Z,47.14
2023-05-19T19:17:27.708Z,47.06
2023-05-19T19:19:49.350Z,47.26
2023-05-19T19:22:10.982Z,47.48
2023-05-19T19:24:32.521Z,47.57
2023-05-19T19:26:54.008Z,48.35
2023-05-19T19:29:16.693Z,47.78
2023-05-19T19:31:38.382Z,48.33
2023-05-19T19:34:03.634Z,48.60
2023-05-19T19:36:26.235Z,48.64
2023-05-19T19:38:47.696Z,48.40
2023-05-19T19:41:09.290Z,48.63
2023-05-19T19:43:30.810Z,49.65
2023-05-19T19:46:00.676Z,49.16
2023-05-19T19:48:22.147Z,49.73
2023-05-19T19:50:43.677Z,49.78
2023-05-19T19:53:05.172Z,49.79
2023-05-19T19:55:26.938Z,49.96
2023-05-19T19:57:49.519Z,51.22
2023-05-19T20:00:11.979Z,51.52
2023-05-19T20:02:35.384Z,51.57
2023-05-19T20:04:56.858Z,52.12
2023-05-19T20:07:20.742Z,51.88
2023-05-19T20:09:42.215Z,53.24
2023-05-19T20:12:04.045Z,53.75
2023-05-19T20:14:25.511Z,53.36
2023-05-19T20:16:47.140Z,53.11
2023-05-19T20:19:09.437Z,52.67
2023-05-19T20:21:31.167Z,53.10
2023-05-19T20:23:52.712Z,52.71
2023-05-19T20:26:14.872Z,53.35
2023-05-19T20:28:36.443Z,53.47
2023-05-19T20:30:57.896Z,53.45
2023-05-19T20:33:19.379Z,53.63
2023-05-19T20:35:40.845Z,53.31
2023-05-19T20:38:02.381Z,54.27
2023-05-19T20:40:23.911Z,54.43
2023-05-19T20:42:45.442Z,53.89
2023-05-19T20:45:08.217Z,55.00
2023-05-19T20:47:30.538Z,54.87
2023-05-19T20:49:52.162Z,55.75
2023-05-19T20:52:16.038Z,55.41
2023-05-19T20:54:37.485Z,55.68
2023-05-19T20:56:58.950Z,56.15
2023-05-19T20:59:20.407Z,56.44
2023-05-19T21:01:42.267Z,58.02
2023-05-19T21:04:07.762Z,58.65
2023-05-19T21:06:29.373Z,57.89
2023-05-19T21:08:51.002Z,57.71
2023-05-19T21:11:12.533Z,57.40
2023-05-19T21:13:34.020Z,57.64
2023-05-19T21:15:56.366Z,57.30
2023-05-19T21:18:17.940Z,57.72
2023-05-19T21:20:39.917Z,57.34
2023-05-19T21:23:01.371Z,56.47
2023-05-19T21:25:23.028Z,56.04
2023-05-19T21:27:46.245Z,57.44
2023-05-19T21:30:09.406Z,56.85
2023-05-19T21:32:30.949Z,57.21
2023-05-19T21:34:52.518Z,56.74
2023-05-19T21:37:13.984Z,57.34
2023-05-19T21:39:35.527Z,57.17
2023-05-19T21:41:56.973Z,57.28
2023-05-19T21:44:18.438Z,57.13
2023-05-19T21:46:39.966Z,57.97
2023-05-19T21:49:01.523Z,57.29
2023-05-19T21:51:23.022Z,59.10
2023-05-19T21:53:45.058Z,57.88
2023-05-19T21:56:06.635Z,57.36
2023-05-19T21:58:28.122Z,57.66
2023-05-19T22:00:51.145Z,57.55
2023-05-19T22:03:12.933Z,58.38
2023-05-19T22:05:35.259Z,58.91
2023-05-19T22:07:56.910Z,59.33
2023-05-19T22:10:18.474Z,59.84
2023-05-19T22:12:40.168Z,61.13
2023-05-19T22:15:02.829Z,62.54
2023-05-19T22:17:24.328Z,61.56
2023-05-19T22:19:46.031Z,61.96
2023-05-19T22:22:13.792Z,60.90
2023-05-19T22:24:36.109Z,62.12
2023-05-19T22:26:57.594Z,61.10
2023-05-19T22:29:20.030Z,61.90
2023-05-19T22:31:41.510Z,61.09
2023-05-19T22:34:03.020Z,61.04
2023-05-19T22:36:24.504Z,61.82
2023-05-19T22:38:45.980Z,61.37
2023-05-19T22:41:07.527Z,61.84
2023-05-19T22:43:28.977Z,61.01
2023-05-19T22:45:50.521Z,60.17
2023-05-19T22:48:12.380Z,62.77
2023-05-19T22:50:33.891Z,61.87
2023-05-19T22:52:55.342Z,62.46
2023-05-19T22:55:16.895Z,63.12
2023-05-19T22:57:38.411Z,61.88
2023-05-19T22:59:59.910Z,62.02
2023-05-19T23:02:21.451Z,61.54
2023-05-19T23:04:42.930Z,62.91
2023-05-19T23:07:04.628Z,62.68
2023-05-19T23:09:27.295Z,64.71
2023-05-19T23:11:48.941Z,64.39
2023-05-19T23:14:10.877Z,63.59
2023-05-19T23:16:32.390Z,64.64
2023-05-19T23:18:53.909Z,63.67
2023-05-19T23:21:15.511Z,62.95
2023-05-19T23:23:36.994Z,62.81
2023-05-19T23:25:58.472Z,62.45
2023-05-19T23:28:19.930Z,62.58
2023-05-19T23:30:41.382Z,62.04
2023-05-19T23:33:02.944Z,63.92
2023-05-19T23:35:24.524Z,65.51
2023-05-19T23:37:46.121Z,65.95
2023-05-19T23:40:08.565Z,64.45
2023-05-19T23:42:30.037Z,63.35
2023-05-19T23:44:51.650Z,63.48
2023-05-19T23:47:13.179Z,64.30
2023-05-19T23:49:34.666Z,64.25
2023-05-19T23:51:56.344Z,67.18
2023-05-19T23:54:17.796Z,67.19
2023-05-19T23:56:39.321Z,66.35
2023-05-19T23:59:00.858Z,64.96
